Time;durP1;ratioP1;P1;durP2;ratioP2;P2;SDS_P1;SDS_P2;PMS_P1;PMS_P2;Temp;Humidity;BMP_temperature;BMP_pressure;BME280_temperature;BME280_humidity;BME280_pressure;Samples;Min_cycle;Max_cycle;Signal;HPM_P1;HPM_P2
2023/12/14 00:01:17;;;;;;;24.50;13.35;;;6.80;99.90;;;;;;5010623;28;20022;-73
2023/12/14 00:03:46;;;;;;;23.65;12.45;;;6.80;99.90;;;;;;5005885;28;20032;-73
2023/12/14 00:06:12;;;;;;;23.75;12.80;;;6.80;99.90;;;;;;5009039;28;20041;-73
2023/12/14 00:08:38;;;;;;;24.92;13.77;;;6.80;99.90;;;;;;4992164;28;20747;-73
2023/12/14 00:11:05;;;;;;;25.77;13.02;;;6.80;99.90;;;;;;5010879;28;20037;-73
2023/12/14 00:13:31;;;;;;;24.08;12.60;;;6.80;99.90;;;;;;5007862;28;20049;-73
2023/12/14 00:15:56;;;;;;;22.90;13.00;;;6.80;99.90;;;;;;5009868;28;20478;-73
2023/12/14 00:18:22;;;;;;;22.13;12.20;;;6.70;99.90;;;;;;5006965;28;20041;-73
2023/12/14 00:20:48;;;;;;;26.60;14.13;;;6.70;99.90;;;;;;5010808;28;20034;-73
2023/12/14 00:23:14;;;;;;;21.67;11.82;;;6.70;99.90;;;;;;5008435;28;20537;-73
2023/12/14 00:25:40;;;;;;;21.05;11.48;;;6.70;99.90;;;;;;5009646;28;20121;-73
2023/12/14 00:28:05;;;;;;;26.70;13.85;;;6.70;99.90;;;;;;5008630;28;20064;-73
2023/12/14 00:30:31;;;;;;;22.67;12.77;;;6.60;99.90;;;;;;5011124;28;20030;-73
2023/12/14 00:32:56;;;;;;;27.35;13.63;;;6.60;99.90;;;;;;5005591;28;20055;-73
2023/12/14 00:35:22;;;;;;;26.45;14.05;;;6.60;99.90;;;;;;5009793;28;20030;-73
2023/12/14 00:37:47;;;;;;;26.05;12.98;;;6.60;99.90;;;;;;5008646;28;20038;-73
2023/12/14 00:40:13;;;;;;;27.13;14.55;;;6.50;99.90;;;;;;5010508;28;20080;-73
2023/12/14 00:42:39;;;;;;;26.10;14.45;;;6.50;99.90;;;;;;5002469;28;20037;-73
2023/12/14 00:45:05;;;;;;;27.10;13.35;;;6.50;99.90;;;;;;4999581;28;20399;-73
2023/12/14 00:47:30;;;;;;;24.90;13.68;;;6.50;99.90;;;;;;5011053;28;20144;-73
2023/12/14 00:49:56;;;;;;;23.42;12.05;;;6.50;99.90;;;;;;5008321;28;20542;-73
2023/12/14 00:52:22;;;;;;;24.63;13.85;;;6.50;99.90;;;;;;5008981;28;20026;-73
2023/12/14 00:54:47;;;;;;;26.65;13.25;;;6.50;99.90;;;;;;4995364;28;20030;-73
2023/12/14 00:57:13;;;;;;;24.50;13.05;;;6.40;99.90;;;;;;5009210;28;20505;-73
2023/12/14 00:59:40;;;;;;;27.88;13.40;;;6.40;99.90;;;;;;5010806;28;20520;-73
2023/12/14 01:02:06;;;;;;;27.33;12.32;;;6.40;99.90;;;;;;5009836;28;20038;-73
2023/12/14 01:04:31;;;;;;;30.20;13.63;;;6.40;99.90;;;;;;5005421;28;20102;-73
2023/12/14 01:06:57;;;;;;;25.98;12.82;;;6.50;99.90;;;;;;5007290;28;20033;-73
2023/12/14 01:09:23;;;;;;;27.15;13.45;;;6.40;99.90;;;;;;5010517;28;20034;-73
2023/12/14 01:11:48;;;;;;;26.30;11.20;;;6.40;99.90;;;;;;5009804;28;20117;-73
2023/12/14 01:14:14;;;;;;;26.77;13.50;;;6.40;99.90;;;;;;5002972;28;20615;-73
2023/12/14 01:16:39;;;;;;;28.70;13.20;;;6.30;99.90;;;;;;4988765;28;20514;-73
2023/12/14 01:19:08;;;;;;;30.10;13.23;;;6.30;99.90;;;;;;5009335;28;20041;-73
2023/12/14 01:21:33;;;;;;;24.90;12.95;;;6.30;99.90;;;;;;5012229;28;20057;-73
2023/12/14 01:24:00;;;;;;;28.58;14.20;;;6.30;99.90;;;;;;5009824;28;20061;-73
2023/12/14 01:26:27;;;;;;;30.10;16.45;;;6.30;99.90;;;;;;5008638;28;20101;-73
2023/12/14 01:28:53;;;;;;;30.42;14.70;;;6.40;99.90;;;;;;5011056;28;20033;-73
2023/12/14 01:31:18;;;;;;;29.77;14.95;;;6.30;99.90;;;;;;5014229;28;20136;-73
2023/12/14 01:33:45;;;;;;;30.13;15.02;;;6.30;99.90;;;;;;5009257;28;20033;-73
2023/12/14 01:36:11;;;;;;;33.70;15.63;;;6.30;99.90;;;;;;5012232;28;20038;-73
2023/12/14 01:38:37;;;;;;;28.08;15.10;;;6.30;99.90;;;;;;5009652;28;20566;-73
2023/12/14 01:41:03;;;;;;;27.00;13.77;;;6.30;99.90;;;;;;5013541;28;20497;-73
2023/12/14 01:43:29;;;;;;;32.75;16.63;;;6.30;99.90;;;;;;5009223;28;20120;-73
2023/12/14 01:45:55;;;;;;;29.83;15.25;;;6.30;99.90;;;;;;5013359;28;20126;-73
2023/12/14 01:48:20;;;;;;;32.72;16.80;;;6.30;99.90;;;;;;5011089;28;20060;-73
2023/12/14 01:50:46;;;;;;;31.42;16.20;;;6.20;99.90;;;;;;5013660;28;20473;-73
2023/12/14 01:53:11;;;;;;;27.23;14.55;;;6.20;99.90;;;;;;5010470;28;20049;-73
2023/12/14 01:55:37;;;;;;;32.05;16.10;;;6.20;99.90;;;;;;5002839;28;20474;-73
2023/12/14 01:58:03;;;;;;;28.85;16.40;;;6.20;99.90;;;;;;5010201;28;20371;-73
2023/12/14 02:00:37;;;;;;;29.05;15.73;;;6.20;99.90;;;;;;5013450;28;20018;-73
2023/12/14 02:03:03;;;;;;;26.77;15.23;;;6.20;99.90;;;;;;5003731;28;20034;-73
2023/12/14 02:05:29;;;;;;;29.23;16.25;;;6.20;99.90;;;;;;5011656;28;20044;-73
2023/12/14 02:07:54;;;;;;;28.27;14.18;;;6.20;99.90;;;;;;5011388;28;20044;-73
2023/12/14 02:10:20;;;;;;;25.13;14.55;;;6.10;99.90;;;;;;5011936;28;20030;-73
2023/12/14 02:12:46;;;;;;;25.95;14.98;;;6.10;99.90;;;;;;5011948;28;20455;-73
2023/12/14 02:15:11;;;;;;;23.65;13.45;;;6.10;99.90;;;;;;5010299;28;20037;-73
2023/12/14 02:17:37;;;;;;;26.27;13.02;;;6.10;99.90;;;;;;5012200;28;20041;-73
2023/12/14 02:20:03;;;;;;;27.75;13.90;;;6.10;99.90;;;;;;5012039;28;20108;-73
2023/12/14 02:22:53;;;;;;;27.38;14.27;;;6.10;99.90;;;;;;4992768;28;20026;-73
2023/12/14 02:25:19;;;;;;;26.35;13.77;;;6.10;99.90;;;;;;5012681;28;20030;-73
2023/12/14 02:27:45;;;;;;;28.05;14.63;;;6.10;99.90;;;;;;5011167;28;20034;-73
2023/12/14 02:30:12;;;;;;;26.00;14.00;;;6.10;99.90;;;;;;5010589;28;20030;-73
2023/12/14 02:32:39;;;;;;;31.15;16.17;;;6.10;99.90;;;;;;5011418;28;20081;-73
2023/12/14 02:35:05;;;;;;;30.85;15.80;;;6.00;99.90;;;;;;5012283;28;20088;-73
2023/12/14 02:37:32;;;;;;;26.55;14.68;;;6.00;99.90;;;;;;5012830;28;20034;-73
2023/12/14 02:39:58;;;;;;;28.20;14.82;;;6.00;99.90;;;;;;5004105;28;20065;-73
2023/12/14 02:42:23;;;;;;;26.88;15.95;;;6.00;99.90;;;;;;5011221;28;20036;-73
2023/12/14 02:44:50;;;;;;;27.67;15.43;;;6.00;99.90;;;;;;5012782;28;20029;-73
2023/12/14 02:47:16;;;;;;;26.17;15.73;;;6.00;99.90;;;;;;5011530;28;20414;-73
2023/12/14 02:49:41;;;;;;;28.05;16.40;;;6.00;99.90;;;;;;4992126;28;20027;-73
2023/12/14 02:52:07;;;;;;;25.55;14.93;;;6.00;99.90;;;;;;5010923;28;20099;-73
2023/12/14 02:54:32;;;;;;;25.67;14.75;;;5.90;99.90;;;;;;5007114;28;20141;-73
2023/12/14 02:56:58;;;;;;;23.58;13.55;;;6.00;99.90;;;;;;4996266;28;20034;-73
2023/12/14 02:59:23;;;;;;;23.35;13.95;;;5.90;99.90;;;;;;5009466;28;20367;-73
2023/12/14 03:01:49;;;;;;;25.77;14.93;;;5.90;99.90;;;;;;5011753;28;20045;-73
2023/12/14 03:04:15;;;;;;;22.77;13.40;;;5.90;99.90;;;;;;5010827;28;20034;-73
2023/12/14 03:06:41;;;;;;;21.88;13.63;;;5.90;99.90;;;;;;4996520;28;20023;-73
2023/12/14 03:09:07;;;;;;;24.10;14.55;;;5.90;99.90;;;;;;5009103;28;20036;-73
2023/12/14 03:11:33;;;;;;;24.42;13.05;;;5.90;99.90;;;;;;5011634;28;20474;-73
2023/12/14 03:13:58;;;;;;;21.65;13.27;;;5.90;99.90;;;;;;5011920;28;20049;-73
2023/12/14 03:16:24;;;;;;;24.65;13.88;;;5.90;99.90;;;;;;5010971;28;20030;-73
2023/12/14 03:18:52;;;;;;;23.67;13.27;;;5.90;99.90;;;;;;5009874;28;20030;-73
2023/12/14 03:21:19;;;;;;;20.85;12.20;;;5.90;99.90;;;;;;5004471;28;20034;-73
2023/12/14 03:23:45;;;;;;;24.98;13.43;;;5.90;99.90;;;;;;5011033;28;20107;-73
2023/12/14 03:26:10;;;;;;;23.90;13.07;;;5.90;99.90;;;;;;5009977;28;20510;-73
2023/12/14 03:28:36;;;;;;;22.85;13.68;;;5.90;99.90;;;;;;5009918;28;20100;-73
2023/12/14 03:31:02;;;;;;;22.55;12.75;;;5.90;99.90;;;;;;5004750;28;20159;-73
2023/12/14 03:33:28;;;;;;;21.20;12.65;;;5.90;99.90;;;;;;5011552;28;20482;-73
2023/12/14 03:35:53;;;;;;;20.65;12.82;;;5.80;99.90;;;;;;5009960;28;20036;-73
2023/12/14 03:38:19;;;;;;;19.05;11.98;;;5.90;99.90;;;;;;5007199;28;20037;-73
2023/12/14 03:40:45;;;;;;;20.92;13.13;;;5.90;99.90;;;;;;5009635;28;20503;-73
2023/12/14 03:43:10;;;;;;;19.98;12.20;;;5.80;99.90;;;;;;5009520;28;20032;-73
2023/12/14 03:45:36;;;;;;;21.73;12.98;;;5.80;99.90;;;;;;5007687;28;20401;-73
2023/12/14 03:48:01;;;;;;;18.85;12.30;;;5.80;99.90;;;;;;5000330;28;20485;-73
2023/12/14 03:50:28;;;;;;;22.42;12.13;;;5.80;99.90;;;;;;5006081;28;20034;-73
2023/12/14 03:52:54;;;;;;;18.00;12.18;;;5.80;99.90;;;;;;5006728;28;20120;-73
2023/12/14 03:55:20;;;;;;;21.25;13.30;;;5.80;99.90;;;;;;5011621;28;20494;-72
2023/12/14 03:57:46;;;;;;;19.48;12.13;;;5.80;99.90;;;;;;5011332;28;20052;-73
2023/12/14 04:00:13;;;;;;;21.58;12.48;;;5.80;99.90;;;;;;4999145;28;20042;-73
2023/12/14 04:02:39;;;;;;;20.17;12.45;;;5.80;99.90;;;;;;5007733;28;20104;-73
2023/12/14 04:05:10;;;;;;;17.75;12.10;;;5.80;99.90;;;;;;5010150;28;20093;-73
2023/12/14 04:07:42;;;;;;;18.80;11.88;;;5.80;99.90;;;;;;5008886;28;20535;-73
2023/12/14 04:10:09;;;;;;;18.33;11.50;;;5.80;99.90;;;;;;5001552;28;20026;-73
2023/12/14 04:12:36;;;;;;;19.92;12.43;;;5.80;99.90;;;;;;5001387;28;20026;-73
2023/12/14 04:15:02;;;;;;;21.55;13.60;;;5.80;99.90;;;;;;5007516;28;20026;-73
2023/12/14 04:17:27;;;;;;;20.05;12.57;;;5.90;99.90;;;;;;5011038;28;20120;-73
2023/12/14 04:19:54;;;;;;;17.95;11.05;;;5.90;99.90;;;;;;4996730;28;20109;-73
2023/12/14 04:22:19;;;;;;;18.35;11.93;;;5.90;99.90;;;;;;5008110;28;20508;-73
2023/12/14 04:24:45;;;;;;;20.55;11.82;;;5.90;99.90;;;;;;5010418;28;20033;-73
2023/12/14 04:27:11;;;;;;;21.95;13.43;;;5.90;99.90;;;;;;5010801;28;20470;-73
2023/12/14 04:29:36;;;;;;;22.27;12.85;;;5.90;99.90;;;;;;4998957;28;20030;-73
2023/12/14 04:32:02;;;;;;;21.15;12.05;;;5.90;99.90;;;;;;5008316;28;20121;-73
2023/12/14 04:34:27;;;;;;;20.38;13.40;;;5.90;99.90;;;;;;5007065;28;20029;-73
2023/12/14 04:36:57;;;;;;;21.00;13.68;;;5.90;99.90;;;;;;5007548;28;20478;-73
2023/12/14 04:39:26;;;;;;;23.70;14.18;;;5.90;99.90;;;;;;5002456;28;20513;-73
2023/12/14 04:41:52;;;;;;;21.67;13.85;;;5.90;99.90;;;;;;5010127;28;20501;-73
2023/12/14 04:44:18;;;;;;;22.77;13.65;;;5.80;99.90;;;;;;5008494;28;20030;-73
2023/12/14 04:46:44;;;;;;;21.98;13.57;;;5.80;99.90;;;;;;5009324;28;20461;-73
2023/12/14 04:49:10;;;;;;;20.55;13.30;;;5.80;99.90;;;;;;5010936;28;20160;-73
2023/12/14 04:51:36;;;;;;;23.98;14.40;;;5.80;99.90;;;;;;5010707;28;20034;-73
2023/12/14 04:54:02;;;;;;;21.02;12.82;;;5.80;99.90;;;;;;5011965;28;20045;-73
2023/12/14 04:56:27;;;;;;;22.95;13.88;;;5.80;99.90;;;;;;5013473;28;20022;-73
2023/12/14 04:58:53;;;;;;;21.15;13.00;;;5.90;99.90;;;;;;5014039;28;20041;-73
2023/12/14 05:01:19;;;;;;;20.30;12.93;;;5.90;99.90;;;;;;5013251;28;20033;-73
2023/12/14 05:03:45;;;;;;;27.00;14.88;;;5.90;99.90;;;;;;5014246;28;20129;-73
2023/12/14 05:06:10;;;;;;;22.02;13.60;;;5.90;99.90;;;;;;5010103;28;20142;-73
2023/12/14 05:08:36;;;;;;;24.08;14.13;;;5.90;99.90;;;;;;5000634;28;20018;-73
2023/12/14 05:11:01;;;;;;;24.60;15.00;;;5.90;99.90;;;;;;5011025;28;20042;-73
2023/12/14 05:13:27;;;;;;;24.20;15.32;;;5.90;99.90;;;;;;5013167;28;20025;-73
2023/12/14 05:15:52;;;;;;;25.85;14.38;;;5.90;99.90;;;;;;5000971;28;20056;-73
2023/12/14 05:18:18;;;;;;;24.48;15.55;;;5.90;99.90;;;;;;5006181;28;20034;-73
2023/12/14 05:20:45;;;;;;;21.65;13.80;;;5.90;99.90;;;;;;5003822;28;20034;-73
2023/12/14 05:23:14;;;;;;;21.63;13.52;;;5.90;99.90;;;;;;5011397;28;20066;-73
2023/12/14 05:25:39;;;;;;;25.38;15.00;;;5.90;99.90;;;;;;5004238;28;20053;-73
2023/12/14 05:28:05;;;;;;;22.88;13.68;;;5.90;99.90;;;;;;5009566;28;20050;-73
2023/12/14 05:30:31;;;;;;;22.80;13.60;;;5.90;99.90;;;;;;5011209;28;20030;-73
2023/12/14 05:32:56;;;;;;;23.33;14.23;;;5.90;99.90;;;;;;4996550;28;20477;-73
2023/12/14 05:35:22;;;;;;;23.10;13.68;;;5.90;99.90;;;;;;5005825;28;20085;-73
2023/12/14 05:37:47;;;;;;;23.50;13.98;;;5.90;99.90;;;;;;5000119;28;20037;-73
2023/12/14 05:40:13;;;;;;;22.33;13.77;;;5.90;99.90;;;;;;5013722;28;20096;-73
2023/12/14 05:42:39;;;;;;;22.50;13.20;;;5.80;99.90;;;;;;5014114;28;20026;-73
2023/12/14 05:45:06;;;;;;;21.92;13.73;;;5.80;99.90;;;;;;5009788;28;20034;-73
2023/12/14 05:47:33;;;;;;;21.55;13.13;;;5.80;99.90;;;;;;5011236;28;20072;-73
2023/12/14 05:49:59;;;;;;;23.88;12.45;;;5.80;99.90;;;;;;5012861;28;20496;-73
2023/12/14 05:52:25;;;;;;;21.02;12.40;;;5.80;99.90;;;;;;4997924;28;20390;-73
2023/12/14 05:54:50;;;;;;;18.00;11.75;;;5.80;99.90;;;;;;5010311;28;20022;-73
2023/12/14 05:57:16;;;;;;;19.85;12.32;;;5.70;99.90;;;;;;5008479;28;20034;-73
2023/12/14 05:59:42;;;;;;;20.55;11.77;;;5.80;99.90;;;;;;5010999;28;20410;-73
2023/12/14 06:02:08;;;;;;;21.17;13.07;;;5.80;99.90;;;;;;5013255;28;20117;-73
2023/12/14 06:04:33;;;;;;;20.77;11.98;;;5.70;99.90;;;;;;5002931;28;20057;-73
2023/12/14 06:06:59;;;;;;;18.52;11.43;;;5.70;99.90;;;;;;5011476;28;20065;-73
2023/12/14 06:09:33;;;;;;;20.17;12.15;;;5.70;99.90;;;;;;5007683;28;20022;-73
2023/12/14 06:12:02;;;;;;;21.63;12.00;;;5.70;99.90;;;;;;5006922;28;20030;-73
2023/12/14 06:14:28;;;;;;;18.77;11.30;;;5.70;99.90;;;;;;5007815;28;20041;-73
2023/12/14 06:16:53;;;;;;;17.77;10.15;;;5.70;99.90;;;;;;5003918;28;20042;-73
2023/12/14 06:19:19;;;;;;;19.55;11.43;;;5.70;99.90;;;;;;5004337;28;20026;-73
2023/12/14 06:21:45;;;;;;;17.38;10.57;;;5.70;99.90;;;;;;5010764;28;20386;-73
2023/12/14 06:24:10;;;;;;;19.30;11.00;;;5.70;99.90;;;;;;5011723;28;20037;-73
2023/12/14 06:26:44;;;;;;;19.67;11.02;;;5.70;99.90;;;;;;5006965;28;20531;-73
2023/12/14 06:29:10;;;;;;;17.35;10.93;;;5.70;99.90;;;;;;5003286;28;20026;-73
2023/12/14 06:31:36;;;;;;;18.90;10.82;;;5.70;99.90;;;;;;5004507;28;20030;-73
2023/12/14 06:34:03;;;;;;;17.52;10.40;;;5.70;99.90;;;;;;5010095;28;20057;-73
2023/12/14 06:36:30;;;;;;;21.95;10.27;;;5.70;99.90;;;;;;5012014;28;20045;-73
2023/12/14 06:38:56;;;;;;;17.95;9.93;;;5.70;99.90;;;;;;4996012;28;20033;-73
2023/12/14 06:41:22;;;;;;;16.67;9.65;;;5.70;99.90;;;;;;5012074;28;20041;-73
2023/12/14 06:43:49;;;;;;;15.98;10.18;;;5.70;99.90;;;;;;5013150;28;20034;-73
2023/12/14 06:46:14;;;;;;;16.58;10.10;;;5.70;99.90;;;;;;5011576;28;20433;-73
2023/12/14 06:48:40;;;;;;;17.88;10.27;;;5.70;99.90;;;;;;5010723;28;20061;-73
2023/12/14 06:51:06;;;;;;;17.25;10.45;;;5.70;99.90;;;;;;5011416;28;20026;-73
2023/12/14 06:53:31;;;;;;;17.92;10.40;;;5.70;99.90;;;;;;5012816;28;20039;-73
2023/12/14 06:55:57;;;;;;;17.48;10.13;;;5.70;99.90;;;;;;5010065;28;20508;-73
2023/12/14 06:58:22;;;;;;;18.95;11.00;;;5.70;99.90;;;;;;5004538;28;20397;-73
2023/12/14 07:00:48;;;;;;;18.48;11.07;;;5.70;99.90;;;;;;5004684;28;20034;-73
2023/12/14 07:03:14;;;;;;;18.17;9.85;;;5.70;99.90;;;;;;5003993;28;20912;-73
2023/12/14 07:05:39;;;;;;;18.92;10.43;;;5.70;99.90;;;;;;5005326;28;20091;-73
2023/12/14 07:08:05;;;;;;;17.23;10.30;;;5.70;99.90;;;;;;5006618;28;20068;-73
2023/12/14 07:10:31;;;;;;;20.02;10.63;;;5.70;99.90;;;;;;5003496;28;20073;-73
2023/12/14 07:12:56;;;;;;;18.45;10.88;;;5.70;99.90;;;;;;5002603;28;20076;-73
2023/12/14 07:15:22;;;;;;;19.80;11.35;;;5.70;99.90;;;;;;5009954;28;20486;-73
2023/12/14 07:17:48;;;;;;;20.40;11.45;;;5.70;99.90;;;;;;5010639;28;20038;-73
2023/12/14 07:20:14;;;;;;;18.40;12.02;;;5.70;99.90;;;;;;4993152;28;20022;-73
2023/12/14 07:22:39;;;;;;;19.15;11.52;;;5.70;99.90;;;;;;5012659;28;20056;-73
2023/12/14 07:25:05;;;;;;;19.38;11.70;;;5.70;99.90;;;;;;5005256;28;20053;-73
2023/12/14 07:27:31;;;;;;;19.52;11.73;;;5.70;99.90;;;;;;5009886;28;20030;-73
2023/12/14 07:29:57;;;;;;;17.55;11.15;;;5.70;99.90;;;;;;5008440;28;20061;-73
2023/12/14 07:32:22;;;;;;;17.15;10.85;;;5.70;99.90;;;;;;5011037;28;20133;-73
2023/12/14 07:34:48;;;;;;;18.23;11.27;;;5.70;99.90;;;;;;5010588;28;20743;-73
2023/12/14 07:37:13;;;;;;;18.58;10.93;;;5.70;99.90;;;;;;4991264;28;20042;-74
2023/12/14 07:39:39;;;;;;;22.25;11.18;;;5.60;99.90;;;;;;5008427;28;20108;-73
2023/12/14 07:42:05;;;;;;;18.05;10.55;;;5.60;99.90;;;;;;5011542;28;20030;-74
2023/12/14 07:44:31;;;;;;;17.33;10.25;;;5.60;99.90;;;;;;5009010;28;20097;-73
2023/12/14 07:46:59;;;;;;;19.35;10.63;;;5.60;99.90;;;;;;5003243;28;20121;-74
2023/12/14 07:49:25;;;;;;;18.45;10.52;;;5.60;99.90;;;;;;5008196;28;20482;-74
2023/12/14 07:51:51;;;;;;;16.98;9.73;;;5.60;99.90;;;;;;5005788;28;20034;-74
2023/12/14 07:54:18;;;;;;;18.77;10.27;;;5.60;99.90;;;;;;5009919;28;20018;-74
2023/12/14 07:56:44;;;;;;;14.57;9.13;;;5.50;99.90;;;;;;5009074;28;20088;-74
2023/12/14 07:59:09;;;;;;;16.67;8.93;;;5.50;99.90;;;;;;5002794;28;20029;-74
2023/12/14 08:01:35;;;;;;;14.27;8.65;;;5.50;99.90;;;;;;5003988;28;20125;-74
2023/12/14 08:04:01;;;;;;;14.95;9.45;;;5.50;99.90;;;;;;5006578;28;20026;-74
2023/12/14 08:06:27;;;;;;;14.70;9.02;;;5.50;99.90;;;;;;4997639;28;20722;-74
2023/12/14 08:08:52;;;;;;;18.63;9.05;;;5.40;99.90;;;;;;5010199;28;20030;-73
2023/12/14 08:11:18;;;;;;;15.15;9.20;;;5.40;99.90;;;;;;5006974;28;20018;-73
2023/12/14 08:13:44;;;;;;;15.73;8.50;;;5.40;99.90;;;;;;5008110;28;20065;-73
2023/12/14 08:16:11;;;;;;;14.15;8.52;;;5.40;99.90;;;;;;5004628;28;20493;-73
2023/12/14 08:18:36;;;;;;;12.98;8.05;;;5.30;99.90;;;;;;5007632;28;20033;-73
2023/12/14 08:21:02;;;;;;;16.10;8.80;;;5.30;99.90;;;;;;5009550;28;20151;-74
2023/12/14 08:23:30;;;;;;;13.77;8.15;;;5.30;99.90;;;;;;5003466;28;20124;-73
2023/12/14 08:25:58;;;;;;;15.65;8.05;;;5.30;99.90;;;;;;5007559;28;20061;-73
2023/12/14 08:28:25;;;;;;;15.20;9.18;;;5.30;99.90;;;;;;5005082;28;20409;-73
2023/12/14 08:30:51;;;;;;;15.48;7.95;;;5.30;99.90;;;;;;5002593;28;20045;-73
2023/12/14 08:33:16;;;;;;;13.05;8.30;;;5.30;99.90;;;;;;5008881;28;20030;-73
2023/12/14 08:35:42;;;;;;;15.02;8.98;;;5.30;99.90;;;;;;5009144;28;20505;-73
2023/12/14 08:38:07;;;;;;;17.92;9.63;;;5.40;99.90;;;;;;5009050;28;20041;-73
2023/12/14 08:40:33;;;;;;;15.48;8.63;;;5.30;99.90;;;;;;5002579;28;20105;-73
2023/12/14 08:42:59;;;;;;;17.48;9.13;;;5.30;99.90;;;;;;5005701;28;20037;-74
2023/12/14 08:45:24;;;;;;;17.25;9.40;;;5.30;99.90;;;;;;4993612;28;20057;-73
2023/12/14 08:47:50;;;;;;;14.18;8.02;;;5.30;99.90;;;;;;4985007;28;20137;-73
2023/12/14 08:50:16;;;;;;;16.15;8.55;;;5.20;99.90;;;;;;5006260;28;20084;-73
2023/12/14 08:52:42;;;;;;;14.40;9.07;;;5.30;99.90;;;;;;4980265;28;20040;-73
2023/12/14 08:55:08;;;;;;;13.57;8.52;;;5.20;99.90;;;;;;4990914;28;20064;-73
2023/12/14 08:57:35;;;;;;;15.93;8.57;;;5.20;99.90;;;;;;5005942;28;20186;-73
2023/12/14 09:00:02;;;;;;;13.27;8.40;;;5.30;99.90;;;;;;5000357;28;20065;-73
2023/12/14 09:02:28;;;;;;;14.07;8.40;;;5.20;99.90;;;;;;5006733;28;20080;-73
2023/12/14 09:04:54;;;;;;;15.13;8.65;;;5.20;99.90;;;;;;5006186;28;20481;-73
2023/12/14 09:07:20;;;;;;;14.30;8.18;;;5.30;99.90;;;;;;5007463;28;20026;-73
2023/12/14 09:09:45;;;;;;;14.20;8.30;;;5.30;99.90;;;;;;5006774;28;20037;-73
2023/12/14 09:12:12;;;;;;;15.35;8.57;;;5.30;99.90;;;;;;4993677;28;20109;-73
2023/12/14 09:14:38;;;;;;;15.02;8.38;;;5.30;99.90;;;;;;5000971;28;20022;-73
2023/12/14 09:17:03;;;;;;;12.07;7.88;;;5.30;99.90;;;;;;5009190;28;20037;-73
2023/12/14 09:19:32;;;;;;;16.13;9.25;;;5.30;99.90;;;;;;5008155;28;20029;-73
2023/12/14 09:21:58;;;;;;;12.98;8.50;;;5.30;99.90;;;;;;5006843;28;20478;-73
2023/12/14 09:24:23;;;;;;;13.57;8.80;;;5.30;99.90;;;;;;5004661;28;20037;-73
2023/12/14 09:26:49;;;;;;;16.77;8.82;;;5.30;99.90;;;;;;5004217;28;20101;-73
2023/12/14 09:29:16;;;;;;;15.90;9.85;;;5.30;99.90;;;;;;5009826;28;20034;-73
2023/12/14 09:31:42;;;;;;;14.98;8.77;;;5.30;99.90;;;;;;5009019;28;20033;-73
2023/12/14 09:34:09;;;;;;;13.98;8.32;;;5.30;99.90;;;;;;4998316;28;20536;-73
2023/12/14 09:36:35;;;;;;;15.13;8.63;;;5.30;99.90;;;;;;5008355;28;20022;-73
2023/12/14 09:39:00;;;;;;;13.07;8.80;;;5.40;99.90;;;;;;5011944;28;20104;-73
2023/12/14 09:41:26;;;;;;;13.38;8.52;;;5.50;99.90;;;;;;5014325;28;20026;-73
2023/12/14 09:43:52;;;;;;;11.65;7.82;;;5.40;99.90;;;;;;5004726;28;20121;-72
2023/12/14 09:46:18;;;;;;;14.02;8.43;;;5.40;99.90;;;;;;5009628;28;20048;-73
2023/12/14 09:48:46;;;;;;;12.23;7.93;;;5.40;99.90;;;;;;5013780;28;20084;-73
2023/12/14 09:51:12;;;;;;;12.65;8.93;;;5.40;99.90;;;;;;5013904;28;20034;-72
2023/12/14 09:53:38;;;;;;;13.38;9.38;;;5.50;99.90;;;;;;5006135;28;20030;-73
2023/12/14 09:56:04;;;;;;;14.30;8.90;;;5.40;99.90;;;;;;5012397;28;20080;-73
2023/12/14 09:58:33;;;;;;;14.68;8.68;;;5.40;99.90;;;;;;5013562;28;20049;-73
2023/12/14 10:01:00;;;;;;;14.73;8.70;;;5.40;99.90;;;;;;5013280;28;20428;-74
2023/12/14 10:03:28;;;;;;;15.00;8.90;;;5.40;99.90;;;;;;5013394;28;20030;-73
2023/12/14 10:05:58;;;;;;;14.30;8.07;;;5.50;99.90;;;;;;5013748;28;20041;-73
2023/12/14 10:08:24;;;;;;;14.73;9.57;;;5.40;99.90;;;;;;5010240;28;20409;-73
2023/12/14 10:10:52;;;;;;;15.63;9.65;;;5.50;99.90;;;;;;5013814;28;20105;-73
2023/12/14 10:13:19;;;;;;;17.48;8.70;;;5.50;99.90;;;;;;5003972;28;20026;-73
2023/12/14 10:15:46;;;;;;;12.07;8.07;;;5.40;99.90;;;;;;5009361;28;20041;-73
2023/12/14 10:18:26;;;;;;;12.60;8.02;;;5.50;99.90;;;;;;5011301;28;20512;-73
2023/12/14 10:20:52;;;;;;;15.35;8.50;;;5.50;99.90;;;;;;5013916;28;20581;-73
2023/12/14 10:23:18;;;;;;;13.57;8.80;;;5.50;99.90;;;;;;4993597;28;20529;-73
2023/12/14 10:25:43;;;;;;;12.57;7.53;;;5.50;99.90;;;;;;5013482;28;20181;-73
2023/12/14 10:28:13;;;;;;;13.68;9.25;;;5.50;99.90;;;;;;5011204;28;20026;-73
2023/12/14 10:30:39;;;;;;;13.27;8.30;;;5.50;99.90;;;;;;5013874;28;20482;-73
2023/12/14 10:33:05;;;;;;;15.85;9.55;;;5.50;99.90;;;;;;5012238;28;20117;-73
2023/12/14 10:35:30;;;;;;;16.83;9.45;;;5.50;99.90;;;;;;5012601;28;20076;-73
2023/12/14 10:38:01;;;;;;;13.60;8.70;;;5.50;99.90;;;;;;5007846;28;20073;-74
2023/12/14 10:40:28;;;;;;;14.65;8.73;;;5.50;99.90;;;;;;5009363;28;20022;-73
2023/12/14 10:42:56;;;;;;;16.88;9.75;;;5.50;99.90;;;;;;5008438;28;20026;-73
2023/12/14 10:45:28;;;;;;;16.00;9.82;;;5.50;99.90;;;;;;4980746;28;20485;-73
2023/12/14 10:47:54;;;;;;;15.75;9.77;;;5.50;99.90;;;;;;5001070;28;20038;-73
2023/12/14 10:50:20;;;;;;;14.10;9.05;;;5.50;99.90;;;;;;5005565;28;20394;-73
2023/12/14 10:52:47;;;;;;;15.45;9.40;;;5.60;99.90;;;;;;4993401;28;20026;-73
2023/12/14 10:55:24;;;;;;;11.75;8.27;;;5.60;99.90;;;;;;5003705;28;20029;-73
2023/12/14 10:57:52;;;;;;;14.25;8.68;;;5.60;99.90;;;;;;5010224;28;20132;-73
2023/12/14 11:00:18;;;;;;;15.35;9.48;;;5.70;99.90;;;;;;5010987;28;20470;-73
2023/12/14 11:02:46;;;;;;;13.85;8.88;;;5.70;99.90;;;;;;5007663;28;20030;-73
2023/12/14 11:05:15;;;;;;;16.17;9.25;;;5.70;99.90;;;;;;5006150;28;20033;-73
2023/12/14 11:07:54;;;;;;;14.73;9.32;;;5.70;99.90;;;;;;5011663;28;20113;-74
2023/12/14 11:10:24;;;;;;;15.07;9.75;;;5.80;99.90;;;;;;4990639;28;20022;-73
2023/12/14 11:12:51;;;;;;;16.02;9.15;;;5.80;99.90;;;;;;5002697;28;20084;-73
2023/12/14 11:15:19;;;;;;;15.60;9.20;;;5.70;99.90;;;;;;5009972;28;20482;-74
2023/12/14 11:18:10;;;;;;;16.15;9.80;;;5.80;99.90;;;;;;5012016;28;20393;-73
2023/12/14 11:20:44;;;;;;;13.55;9.00;;;5.80;99.90;;;;;;5007402;28;20030;-75
2023/12/14 11:23:13;;;;;;;14.57;9.45;;;5.80;99.90;;;;;;5000375;28;20359;-74
2023/12/14 11:25:41;;;;;;;16.75;9.32;;;5.80;99.90;;;;;;5012100;28;20109;-74
2023/12/14 11:28:10;;;;;;;14.73;9.45;;;5.80;99.90;;;;;;5009192;28;20402;-74
2023/12/14 11:30:37;;;;;;;16.35;9.20;;;5.80;99.90;;;;;;5010441;28;20056;-74
2023/12/14 11:33:03;;;;;;;17.35;9.30;;;5.80;99.90;;;;;;5009697;28;20025;-74
2023/12/14 11:35:29;;;;;;;16.10;9.38;;;5.80;99.90;;;;;;4981923;28;20034;-74
2023/12/14 11:38:01;;;;;;;15.80;9.43;;;5.80;99.90;;;;;;5003328;28;20034;-74
2023/12/14 11:40:28;;;;;;;16.05;9.68;;;5.80;99.90;;;;;;5005114;28;20393;-74
2023/12/14 11:43:06;;;;;;;15.77;9.63;;;5.80;99.90;;;;;;5000307;28;20479;-74
2023/12/14 11:45:32;;;;;;;15.73;10.05;;;5.80;99.90;;;;;;5010039;28;20394;-74
2023/12/14 11:47:58;;;;;;;18.50;10.15;;;5.80;99.90;;;;;;5003767;28;20030;-74
2023/12/14 11:50:23;;;;;;;15.57;9.52;;;5.80;99.90;;;;;;5000796;28;20270;-73
2023/12/14 11:52:49;;;;;;;14.20;9.13;;;5.80;99.90;;;;;;5004248;28;20030;-71
2023/12/14 11:55:15;;;;;;;16.45;10.45;;;5.80;99.90;;;;;;5009733;28;20038;-73
2023/12/14 11:57:47;;;;;;;15.82;9.02;;;5.80;99.90;;;;;;5008730;28;20479;-74
2023/12/14 12:00:13;;;;;;;14.07;9.32;;;5.80;99.90;;;;;;5005541;28;20030;-74
2023/12/14 12:02:40;;;;;;;15.07;9.30;;;5.90;99.90;;;;;;5008297;28;20049;-74
2023/12/14 12:05:06;;;;;;;14.20;9.20;;;6.00;99.90;;;;;;5001972;28;20037;-74
2023/12/14 12:07:32;;;;;;;16.25;9.30;;;6.10;99.90;;;;;;5008906;28;20057;-74
2023/12/14 12:09:59;;;;;;;14.95;9.35;;;6.20;99.90;;;;;;5007852;28;20112;-74
2023/12/14 12:12:25;;;;;;;13.10;8.90;;;6.20;99.90;;;;;;5006881;28;20026;-74
2023/12/14 12:14:52;;;;;;;12.82;8.90;;;6.20;99.90;;;;;;5010495;28;20030;-73
2023/12/14 12:17:21;;;;;;;16.02;10.18;;;6.20;99.90;;;;;;5007072;28;20048;-73
2023/12/14 12:19:47;;;;;;;14.52;8.80;;;6.20;99.90;;;;;;5002565;28;20336;-74
2023/12/14 12:22:12;;;;;;;14.25;9.40;;;6.20;99.90;;;;;;5002250;28;20037;-74
2023/12/14 12:24:38;;;;;;;14.10;9.32;;;6.20;99.90;;;;;;5008396;28;20018;-73
2023/12/14 12:27:04;;;;;;;14.60;8.88;;;6.20;99.90;;;;;;5003903;28;20026;-73
2023/12/14 12:29:30;;;;;;;14.13;9.07;;;6.20;99.90;;;;;;4985675;28;20022;-73
2023/12/14 12:31:56;;;;;;;14.65;9.13;;;6.20;99.90;;;;;;4998600;28;20173;-74
2023/12/14 12:34:22;;;;;;;16.05;9.20;;;6.20;99.90;;;;;;4989592;28;20474;-73
2023/12/14 12:36:47;;;;;;;13.65;9.10;;;6.30;99.90;;;;;;5005021;28;20053;-74